sensor_id;sensor_type;location;lat;lon;timestamp;P1;durP1;ratioP1;P2;durP2;ratioP2
7142;SDS011;3613;48.902;9.204;2022-10-16T00:00:44;2.97;;;2.20;;
7142;SDS011;3613;48.902;9.204;2022-10-16T00:03:10;4.37;;;2.17;;
7142;SDS011;3613;48.902;9.204;2022-10-16T00:05:40;4.50;;;2.40;;
7142;SDS011;3613;48.902;9.204;2022-10-16T00:08:07;6.27;;;1.93;;
7142;SDS011;3613;48.902;9.204;2022-10-16T00:10:34;5.67;;;2.70;;
7142;SDS011;3613;48.902;9.204;2022-10-16T00:13:00;3.53;;;1.97;;
7142;SDS011;3613;48.902;9.204;2022-10-16T00:15:26;2.90;;;2.10;;
7142;SDS011;3613;48.902;9.204;2022-10-16T00:17:52;4.77;;;2.47;;
7142;SDS011;3613;48.902;9.204;2022-10-16T00:20:17;3.97;;;2.20;;
7142;SDS011;3613;48.902;9.204;2022-10-16T00:22:47;2.57;;;2.10;;
7142;SDS011;3613;48.902;9.204;2022-10-16T00:25:13;4.03;;;2.50;;
7142;SDS011;3613;48.902;9.204;2022-10-16T00:27:39;4.90;;;2.37;;
7142;SDS011;3613;48.902;9.204;2022-10-16T00:30:04;3.30;;;2.50;;
7142;SDS011;3613;48.902;9.204;2022-10-16T00:32:33;4.70;;;2.00;;
7142;SDS011;3613;48.902;9.204;2022-10-16T00:35:01;4.00;;;2.43;;
7142;SDS011;3613;48.902;9.204;2022-10-16T00:37:29;3.73;;;2.30;;
7142;SDS011;3613;48.902;9.204;2022-10-16T00:39:57;3.63;;;2.17;;
7142;SDS011;3613;48.902;9.204;2022-10-16T00:42:23;4.70;;;1.90;;
7142;SDS011;3613;48.902;9.204;2022-10-16T00:47:26;4.83;;;2.30;;
7142;SDS011;3613;48.902;9.204;2022-10-16T00:49:59;2.80;;;1.93;;
7142;SDS011;3613;48.902;9.204;2022-10-16T00:52:32;4.43;;;2.27;;
7142;SDS011;3613;48.902;9.204;2022-10-16T00:54:59;5.53;;;2.40;;
7142;SDS011;3613;48.902;9.204;2022-10-16T00:57:26;2.70;;;2.20;;
7142;SDS011;3613;48.902;9.204;2022-10-16T00:59:56;2.73;;;1.80;;
7142;SDS011;3613;48.902;9.204;2022-10-16T01:02:22;2.50;;;2.20;;
7142;SDS011;3613;48.902;9.204;2022-10-16T01:04:49;2.30;;;2.00;;
7142;SDS011;3613;48.902;9.204;2022-10-16T01:12:38;6.90;;;2.23;;
7142;SDS011;3613;48.902;9.204;2022-10-16T01:15:10;3.47;;;2.27;;
7142;SDS011;3613;48.902;9.204;2022-10-16T01:20:27;3.20;;;2.00;;
7142;SDS011;3613;48.902;9.204;2022-10-16T01:25:52;4.80;;;2.13;;
7142;SDS011;3613;48.902;9.204;2022-10-16T01:28:40;5.13;;;2.17;;
7142;SDS011;3613;48.902;9.204;2022-10-16T01:31:12;2.80;;;2.10;;
7142;SDS011;3613;48.902;9.204;2022-10-16T01:33:48;2.00;;;1.70;;
7142;SDS011;3613;48.902;9.204;2022-10-16T01:36:21;2.27;;;1.90;;
7142;SDS011;3613;48.902;9.204;2022-10-16T01:38:52;3.97;;;1.87;;
7142;SDS011;3613;48.902;9.204;2022-10-16T01:41:26;2.40;;;1.90;;
7142;SDS011;3613;48.902;9.204;2022-10-16T01:44:10;2.80;;;2.07;;
7142;SDS011;3613;48.902;9.204;2022-10-16T01:46:42;4.60;;;2.07;;
7142;SDS011;3613;48.902;9.204;2022-10-16T01:49:10;6.10;;;2.13;;
7142;SDS011;3613;48.902;9.204;2022-10-16T01:51:37;3.30;;;1.90;;
7142;SDS011;3613;48.902;9.204;2022-10-16T01:54:04;4.20;;;2.20;;
7142;SDS011;3613;48.902;9.204;2022-10-16T01:56:31;10.40;;;2.33;;
7142;SDS011;3613;48.902;9.204;2022-10-16T01:59:02;3.17;;;2.20;;
7142;SDS011;3613;48.902;9.204;2022-10-16T02:01:36;2.50;;;2.30;;
7142;SDS011;3613;48.902;9.204;2022-10-16T02:04:14;2.57;;;2.03;;
7142;SDS011;3613;48.902;9.204;2022-10-16T02:06:49;3.23;;;2.20;;
7142;SDS011;3613;48.902;9.204;2022-10-16T02:09:15;2.57;;;2.30;;
7142;SDS011;3613;48.902;9.204;2022-10-16T02:11:41;4.23;;;2.20;;
7142;SDS011;3613;48.902;9.204;2022-10-16T02:14:11;3.03;;;2.23;;
7142;SDS011;3613;48.902;9.204;2022-10-16T02:16:39;4.13;;;2.33;;
7142;SDS011;3613;48.902;9.204;2022-10-16T02:19:09;2.63;;;1.90;;
7142;SDS011;3613;48.902;9.204;2022-10-16T02:21:39;2.60;;;2.00;;
7142;SDS011;3613;48.902;9.204;2022-10-16T02:24:14;3.40;;;2.30;;
7142;SDS011;3613;48.902;9.204;2022-10-16T02:26:52;2.77;;;1.87;;
7142;SDS011;3613;48.902;9.204;2022-10-16T02:29:28;4.17;;;2.10;;
7142;SDS011;3613;48.902;9.204;2022-10-16T02:31:57;3.27;;;2.00;;
7142;SDS011;3613;48.902;9.204;2022-10-16T02:34:26;2.73;;;2.20;;
7142;SDS011;3613;48.902;9.204;2022-10-16T02:36:53;5.43;;;2.00;;
7142;SDS011;3613;48.902;9.204;2022-10-16T02:39:19;2.80;;;2.10;;
7142;SDS011;3613;48.902;9.204;2022-10-16T02:41:46;3.83;;;2.13;;
7142;SDS011;3613;48.902;9.204;2022-10-16T02:44:14;3.80;;;1.93;;
7142;SDS011;3613;48.902;9.204;2022-10-16T02:46:44;2.43;;;2.00;;
7142;SDS011;3613;48.902;9.204;2022-10-16T02:49:12;3.07;;;1.90;;
7142;SDS011;3613;48.902;9.204;2022-10-16T02:51:37;3.77;;;2.20;;
7142;SDS011;3613;48.902;9.204;2022-10-16T02:54:03;3.20;;;2.30;;
7142;SDS011;3613;48.902;9.204;2022-10-16T02:56:29;4.40;;;2.10;;
7142;SDS011;3613;48.902;9.204;2022-10-16T02:58:57;4.43;;;2.20;;
7142;SDS011;3613;48.902;9.204;2022-10-16T03:01:23;2.50;;;2.30;;
7142;SDS011;3613;48.902;9.204;2022-10-16T03:03:51;4.23;;;2.13;;
7142;SDS011;3613;48.902;9.204;2022-10-16T03:06:19;3.77;;;2.13;;
7142;SDS011;3613;48.902;9.204;2022-10-16T03:08:44;2.47;;;2.27;;
7142;SDS011;3613;48.902;9.204;2022-10-16T03:11:12;3.23;;;1.93;;
7142;SDS011;3613;48.902;9.204;2022-10-16T03:13:38;3.00;;;1.90;;
7142;SDS011;3613;48.902;9.204;2022-10-16T03:16:06;3.17;;;2.47;;
7142;SDS011;3613;48.902;9.204;2022-10-16T03:18:32;2.87;;;1.80;;
7142;SDS011;3613;48.902;9.204;2022-10-16T03:21:00;3.63;;;1.97;;
7142;SDS011;3613;48.902;9.204;2022-10-16T03:23:25;2.10;;;1.83;;
7142;SDS011;3613;48.902;9.204;2022-10-16T03:25:51;8.40;;;2.37;;
7142;SDS011;3613;48.902;9.204;2022-10-16T03:28:17;2.73;;;2.13;;
7142;SDS011;3613;48.902;9.204;2022-10-16T03:30:45;2.50;;;2.03;;
7142;SDS011;3613;48.902;9.204;2022-10-16T03:33:13;3.00;;;2.37;;
7142;SDS011;3613;48.902;9.204;2022-10-16T03:35:41;2.80;;;2.00;;
7142;SDS011;3613;48.902;9.204;2022-10-16T03:38:06;3.33;;;1.93;;
7142;SDS011;3613;48.902;9.204;2022-10-16T03:40:32;3.70;;;2.30;;
7142;SDS011;3613;48.902;9.204;2022-10-16T03:42:58;2.67;;;2.00;;
7142;SDS011;3613;48.902;9.204;2022-10-16T03:45:24;4.10;;;2.90;;
7142;SDS011;3613;48.902;9.204;2022-10-16T03:47:51;2.20;;;2.00;;
7142;SDS011;3613;48.902;9.204;2022-10-16T03:50:16;6.60;;;2.20;;
7142;SDS011;3613;48.902;9.204;2022-10-16T03:52:42;2.80;;;2.10;;
7142;SDS011;3613;48.902;9.204;2022-10-16T03:55:07;4.73;;;2.13;;
7142;SDS011;3613;48.902;9.204;2022-10-16T03:57:33;3.60;;;2.37;;
7142;SDS011;3613;48.902;9.204;2022-10-16T03:59:59;3.03;;;2.10;;
7142;SDS011;3613;48.902;9.204;2022-10-16T04:02:24;2.33;;;2.10;;
7142;SDS011;3613;48.902;9.204;2022-10-16T04:04:50;5.23;;;2.23;;
7142;SDS011;3613;48.902;9.204;2022-10-16T04:07:16;5.50;;;2.30;;
7142;SDS011;3613;48.902;9.204;2022-10-16T04:09:44;3.03;;;1.93;;
7142;SDS011;3613;48.902;9.204;2022-10-16T04:12:10;3.20;;;2.03;;
7142;SDS011;3613;48.902;9.204;2022-10-16T04:14:35;3.90;;;2.07;;
7142;SDS011;3613;48.902;9.204;2022-10-16T04:17:01;2.73;;;2.20;;
7142;SDS011;3613;48.902;9.204;2022-10-16T04:19:26;2.60;;;2.37;;
7142;SDS011;3613;48.902;9.204;2022-10-16T04:21:52;4.07;;;2.60;;
7142;SDS011;3613;48.902;9.204;2022-10-16T04:24:17;3.73;;;2.30;;
7142;SDS011;3613;48.902;9.204;2022-10-16T04:26:43;3.00;;;2.53;;
7142;SDS011;3613;48.902;9.204;2022-10-16T04:29:11;4.23;;;2.30;;
7142;SDS011;3613;48.902;9.204;2022-10-16T04:31:36;3.40;;;2.50;;
7142;SDS011;3613;48.902;9.204;2022-10-16T04:34:02;4.30;;;2.60;;
7142;SDS011;3613;48.902;9.204;2022-10-16T04:36:30;8.27;;;2.90;;
7142;SDS011;3613;48.902;9.204;2022-10-16T04:38:55;3.50;;;2.60;;
7142;SDS011;3613;48.902;9.204;2022-10-16T04:41:23;2.43;;;2.23;;
7142;SDS011;3613;48.902;9.204;2022-10-16T04:43:49;3.67;;;2.63;;
7142;SDS011;3613;48.902;9.204;2022-10-16T04:46:15;6.07;;;2.97;;
7142;SDS011;3613;48.902;9.204;2022-10-16T04:48:40;4.67;;;2.50;;
7142;SDS011;3613;48.902;9.204;2022-10-16T04:51:08;3.27;;;2.70;;
7142;SDS011;3613;48.902;9.204;2022-10-16T04:53:36;3.60;;;2.97;;
7142;SDS011;3613;48.902;9.204;2022-10-16T04:56:04;5.77;;;2.80;;
7142;SDS011;3613;48.902;9.204;2022-10-16T04:58:30;4.67;;;2.70;;
7142;SDS011;3613;48.902;9.204;2022-10-16T05:00:58;3.10;;;2.73;;
7142;SDS011;3613;48.902;9.204;2022-10-16T05:03:23;7.97;;;3.40;;
7142;SDS011;3613;48.902;9.204;2022-10-16T05:05:49;4.13;;;2.70;;
7142;SDS011;3613;48.902;9.204;2022-10-16T05:08:15;3.10;;;2.63;;
7142;SDS011;3613;48.902;9.204;2022-10-16T05:10:45;6.83;;;2.97;;
7142;SDS011;3613;48.902;9.204;2022-10-16T05:13:13;6.43;;;3.03;;
7142;SDS011;3613;48.902;9.204;2022-10-16T05:15:39;4.03;;;2.87;;
7142;SDS011;3613;48.902;9.204;2022-10-16T05:18:05;3.70;;;2.90;;
7142;SDS011;3613;48.902;9.204;2022-10-16T05:20:30;6.00;;;2.77;;
7142;SDS011;3613;48.902;9.204;2022-10-16T05:22:56;3.40;;;2.70;;
7142;SDS011;3613;48.902;9.204;2022-10-16T05:25:22;6.07;;;2.67;;
7142;SDS011;3613;48.902;9.204;2022-10-16T05:27:48;4.73;;;2.80;;
7142;SDS011;3613;48.902;9.204;2022-10-16T05:30:14;3.50;;;2.90;;
7142;SDS011;3613;48.902;9.204;2022-10-16T05:32:45;2.90;;;2.67;;
7142;SDS011;3613;48.902;9.204;2022-10-16T05:35:15;7.67;;;3.00;;
7142;SDS011;3613;48.902;9.204;2022-10-16T05:37:41;6.83;;;2.80;;
7142;SDS011;3613;48.902;9.204;2022-10-16T05:40:08;7.27;;;3.47;;
7142;SDS011;3613;48.902;9.204;2022-10-16T05:42:38;6.77;;;3.60;;
7142;SDS011;3613;48.902;9.204;2022-10-16T05:45:08;6.10;;;3.40;;
7142;SDS011;3613;48.902;9.204;2022-10-16T05:47:37;4.37;;;3.10;;
7142;SDS011;3613;48.902;9.204;2022-10-16T05:50:03;3.93;;;2.73;;
7142;SDS011;3613;48.902;9.204;2022-10-16T05:52:29;5.00;;;2.90;;
7142;SDS011;3613;48.902;9.204;2022-10-16T05:54:56;6.27;;;3.87;;
7142;SDS011;3613;48.902;9.204;2022-10-16T05:57:24;7.97;;;3.50;;
7142;SDS011;3613;48.902;9.204;2022-10-16T05:59:52;4.77;;;3.30;;
7142;SDS011;3613;48.902;9.204;2022-10-16T06:02:21;5.00;;;3.57;;
7142;SDS011;3613;48.902;9.204;2022-10-16T06:04:49;6.03;;;3.50;;
7142;SDS011;3613;48.902;9.204;2022-10-16T06:07:18;4.80;;;3.07;;
7142;SDS011;3613;48.902;9.204;2022-10-16T06:09:44;5.20;;;3.20;;
7142;SDS011;3613;48.902;9.204;2022-10-16T06:12:15;11.00;;;3.57;;
7142;SDS011;3613;48.902;9.204;2022-10-16T06:14:41;4.30;;;3.20;;
7142;SDS011;3613;48.902;9.204;2022-10-16T06:17:07;7.00;;;3.53;;
7142;SDS011;3613;48.902;9.204;2022-10-16T06:19:32;5.57;;;3.43;;
7142;SDS011;3613;48.902;9.204;2022-10-16T06:21:58;5.10;;;3.20;;
7142;SDS011;3613;48.902;9.204;2022-10-16T06:24:24;5.23;;;3.30;;
7142;SDS011;3613;48.902;9.204;2022-10-16T06:26:50;4.97;;;3.50;;
7142;SDS011;3613;48.902;9.204;2022-10-16T06:29:16;4.33;;;3.30;;
7142;SDS011;3613;48.902;9.204;2022-10-16T06:31:41;4.77;;;3.60;;
7142;SDS011;3613;48.902;9.204;2022-10-16T06:34:10;7.20;;;3.73;;
7142;SDS011;3613;48.902;9.204;2022-10-16T06:36:36;4.20;;;3.23;;
7142;SDS011;3613;48.902;9.204;2022-10-16T06:39:05;4.83;;;2.80;;
7142;SDS011;3613;48.902;9.204;2022-10-16T06:41:32;5.33;;;3.20;;
7142;SDS011;3613;48.902;9.204;2022-10-16T06:43:58;5.37;;;3.60;;
7142;SDS011;3613;48.902;9.204;2022-10-16T06:46:24;5.53;;;3.33;;
7142;SDS011;3613;48.902;9.204;2022-10-16T06:48:53;5.00;;;3.23;;
7142;SDS011;3613;48.902;9.204;2022-10-16T06:51:19;4.13;;;3.30;;
7142;SDS011;3613;48.902;9.204;2022-10-16T06:53:47;6.23;;;3.07;;
7142;SDS011;3613;48.902;9.204;2022-10-16T06:56:25;5.03;;;2.83;;
7142;SDS011;3613;48.902;9.204;2022-10-16T06:58:54;5.90;;;3.33;;
7142;SDS011;3613;48.902;9.204;2022-10-16T07:01:21;5.27;;;3.17;;
7142;SDS011;3613;48.902;9.204;2022-10-16T07:03:48;7.17;;;3.17;;
7142;SDS011;3613;48.902;9.204;2022-10-16T07:06:15;7.40;;;3.10;;
7142;SDS011;3613;48.902;9.204;2022-10-16T07:08:43;3.63;;;2.97;;
7142;SDS011;3613;48.902;9.204;2022-10-16T07:11:13;3.13;;;2.67;;
7142;SDS011;3613;48.902;9.204;2022-10-16T07:13:44;5.10;;;2.67;;
7142;SDS011;3613;48.902;9.204;2022-10-16T07:16:14;4.57;;;2.70;;
7142;SDS011;3613;48.902;9.204;2022-10-16T07:18:44;4.97;;;2.73;;
7142;SDS011;3613;48.902;9.204;2022-10-16T07:21:15;3.70;;;2.50;;
7142;SDS011;3613;48.902;9.204;2022-10-16T07:23:51;4.77;;;2.70;;
7142;SDS011;3613;48.902;9.204;2022-10-16T07:26:18;3.07;;;2.60;;
7142;SDS011;3613;48.902;9.204;2022-10-16T07:28:44;4.43;;;2.57;;
7142;SDS011;3613;48.902;9.204;2022-10-16T07:31:14;5.30;;;2.97;;
7142;SDS011;3613;48.902;9.204;2022-10-16T07:33:41;5.27;;;2.60;;
7142;SDS011;3613;48.902;9.204;2022-10-16T07:36:10;11.03;;;2.47;;
7142;SDS011;3613;48.902;9.204;2022-10-16T07:38:36;4.33;;;2.77;;
7142;SDS011;3613;48.902;9.204;2022-10-16T07:41:09;5.40;;;3.00;;
7142;SDS011;3613;48.902;9.204;2022-10-16T07:43:39;4.47;;;2.50;;
7142;SDS011;3613;48.902;9.204;2022-10-16T07:46:05;7.37;;;2.90;;
7142;SDS011;3613;48.902;9.204;2022-10-16T07:48:31;7.43;;;2.73;;
7142;SDS011;3613;48.902;9.204;2022-10-16T07:51:01;4.37;;;2.30;;
7142;SDS011;3613;48.902;9.204;2022-10-16T07:53:28;2.57;;;2.37;;
7142;SDS011;3613;48.902;9.204;2022-10-16T07:55:58;3.20;;;2.30;;
7142;SDS011;3613;48.902;9.204;2022-10-16T07:58:27;7.43;;;2.70;;
7142;SDS011;3613;48.902;9.204;2022-10-16T08:00:53;6.60;;;3.53;;
7142;SDS011;3613;48.902;9.204;2022-10-16T08:03:20;7.30;;;3.00;;
7142;SDS011;3613;48.902;9.204;2022-10-16T08:05:45;5.87;;;2.93;;
7142;SDS011;3613;48.902;9.204;2022-10-16T08:08:17;3.87;;;3.10;;
7142;SDS011;3613;48.902;9.204;2022-10-16T08:10:44;4.27;;;2.90;;
7142;SDS011;3613;48.902;9.204;2022-10-16T08:13:10;4.17;;;2.87;;
7142;SDS011;3613;48.902;9.204;2022-10-16T08:15:35;4.33;;;2.70;;
7142;SDS011;3613;48.902;9.204;2022-10-16T08:18:04;4.53;;;2.33;;
7142;SDS011;3613;48.902;9.204;2022-10-16T08:20:30;6.23;;;2.57;;
7142;SDS011;3613;48.902;9.204;2022-10-16T08:22:57;2.93;;;2.27;;
7142;SDS011;3613;48.902;9.204;2022-10-16T08:25:24;3.03;;;2.40;;
7142;SDS011;3613;48.902;9.204;2022-10-16T08:27:50;7.23;;;2.47;;
7142;SDS011;3613;48.902;9.204;2022-10-16T08:30:16;5.77;;;2.70;;
7142;SDS011;3613;48.902;9.204;2022-10-16T08:32:45;2.60;;;2.10;;
7142;SDS011;3613;48.902;9.204;2022-10-16T08:35:13;3.47;;;2.13;;
7142;SDS011;3613;48.902;9.204;2022-10-16T08:37:40;3.23;;;2.40;;
7142;SDS011;3613;48.902;9.204;2022-10-16T08:40:07;2.17;;;1.73;;
7142;SDS011;3613;48.902;9.204;2022-10-16T08:50:39;2.07;;;1.70;;
7142;SDS011;3613;48.902;9.204;2022-10-16T08:53:09;2.40;;;1.80;;
7142;SDS011;3613;48.902;9.204;2022-10-16T08:55:41;4.03;;;1.70;;
7142;SDS011;3613;48.902;9.204;2022-10-16T08:58:18;3.10;;;2.00;;
7142;SDS011;3613;48.902;9.204;2022-10-16T09:00:50;3.73;;;1.80;;
7142;SDS011;3613;48.902;9.204;2022-10-16T09:06:17;4.43;;;2.20;;
7142;SDS011;3613;48.902;9.204;2022-10-16T09:22:33;3.17;;;1.90;;
7142;SDS011;3613;48.902;9.204;2022-10-16T09:25:00;3.67;;;2.17;;
7142;SDS011;3613;48.902;9.204;2022-10-16T09:27:38;5.73;;;1.60;;
7142;SDS011;3613;48.902;9.204;2022-10-16T09:30:10;4.67;;;2.17;;
7142;SDS011;3613;48.902;9.204;2022-10-16T09:32:44;3.03;;;2.00;;
7142;SDS011;3613;48.902;9.204;2022-10-16T09:35:14;3.10;;;2.17;;
7142;SDS011;3613;48.902;9.204;2022-10-16T09:37:59;1.90;;;1.53;;
7142;SDS011;3613;48.902;9.204;2022-10-16T09:46:06;5.17;;;1.93;;
7142;SDS011;3613;48.902;9.204;2022-10-16T09:48:33;2.80;;;1.77;;
7142;SDS011;3613;48.902;9.204;2022-10-16T09:51:02;1.90;;;1.70;;
7142;SDS011;3613;48.902;9.204;2022-10-16T09:53:42;1.83;;;1.70;;
7142;SDS011;3613;48.902;9.204;2022-10-16T09:56:10;4.33;;;1.53;;
7142;SDS011;3613;48.902;9.204;2022-10-16T09:58:49;2.47;;;1.70;;
7142;SDS011;3613;48.902;9.204;2022-10-16T10:01:18;3.63;;;1.73;;
7142;SDS011;3613;48.902;9.204;2022-10-16T10:03:45;3.90;;;1.53;;
7142;SDS011;3613;48.902;9.204;2022-10-16T10:08:56;2.10;;;1.80;;
7142;SDS011;3613;48.902;9.204;2022-10-16T10:11:41;5.00;;;1.87;;
7142;SDS011;3613;48.902;9.204;2022-10-16T10:14:23;2.67;;;1.70;;
7142;SDS011;3613;48.902;9.204;2022-10-16T10:17:01;1.90;;;1.50;;
7142;SDS011;3613;48.902;9.204;2022-10-16T10:19:30;2.30;;;1.57;;
7142;SDS011;3613;48.902;9.204;2022-10-16T10:24:43;2.97;;;1.80;;
7142;SDS011;3613;48.902;9.204;2022-10-16T10:27:21;6.93;;;2.13;;
7142;SDS011;3613;48.902;9.204;2022-10-16T10:35:22;4.63;;;1.87;;
7142;SDS011;3613;48.902;9.204;2022-10-16T10:38:16;7.27;;;1.90;;
7142;SDS011;3613;48.902;9.204;2022-10-16T10:43:56;6.37;;;5.77;;
7142;SDS011;3613;48.902;9.204;2022-10-16T10:50:31;2.37;;;1.70;;
7142;SDS011;3613;48.902;9.204;2022-10-16T11:01:16;6.13;;;2.23;;
7142;SDS011;3613;48.902;9.204;2022-10-16T11:07:05;2.67;;;1.67;;
7142;SDS011;3613;48.902;9.204;2022-10-16T11:09:41;5.50;;;2.10;;
7142;SDS011;3613;48.902;9.204;2022-10-16T11:12:31;4.77;;;1.70;;
7142;SDS011;3613;48.902;9.204;2022-10-16T11:17:53;3.63;;;1.70;;
7142;SDS011;3613;48.902;9.204;2022-10-16T11:20:28;1.93;;;1.30;;
7142;SDS011;3613;48.902;9.204;2022-10-16T11:23:00;2.53;;;1.50;;
7142;SDS011;3613;48.902;9.204;2022-10-16T11:25:41;3.80;;;1.90;;
7142;SDS011;3613;48.902;9.204;2022-10-16T11:36:13;1.60;;;1.50;;
7142;SDS011;3613;48.902;9.204;2022-10-16T11:46:38;3.47;;;1.80;;
7142;SDS011;3613;48.902;9.204;2022-10-16T11:49:21;5.10;;;2.10;;
7142;SDS011;3613;48.902;9.204;2022-10-16T11:51:57;2.53;;;2.20;;
7142;SDS011;3613;48.902;9.204;2022-10-16T11:56:57;2.72;;;1.65;;
7142;SDS011;3613;48.902;9.204;2022-10-16T11:59:30;1.80;;;1.60;;
7142;SDS011;3613;48.902;9.204;2022-10-16T12:07:51;3.60;;;2.30;;
7142;SDS011;3613;48.902;9.204;2022-10-16T12:10:28;2.47;;;1.57;;
7142;SDS011;3613;48.902;9.204;2022-10-16T12:12:57;2.77;;;1.80;;
7142;SDS011;3613;48.902;9.204;2022-10-16T12:17:51;3.87;;;2.20;;
7142;SDS011;3613;48.902;9.204;2022-10-16T12:20:29;4.93;;;3.50;;
7142;SDS011;3613;48.902;9.204;2022-10-16T12:23:04;2.80;;;1.43;;
7142;SDS011;3613;48.902;9.204;2022-10-16T12:25:32;2.30;;;1.57;;
7142;SDS011;3613;48.902;9.204;2022-10-16T12:28:17;2.17;;;1.93;;
7142;SDS011;3613;48.902;9.204;2022-10-16T12:30:54;4.50;;;1.73;;
7142;SDS011;3613;48.902;9.204;2022-10-16T12:33:28;3.87;;;1.90;;
7142;SDS011;3613;48.902;9.204;2022-10-16T12:35:55;4.30;;;1.93;;
7142;SDS011;3613;48.902;9.204;2022-10-16T12:38:27;4.33;;;1.90;;
7142;SDS011;3613;48.902;9.204;2022-10-16T12:41:23;2.70;;;2.10;;
7142;SDS011;3613;48.902;9.204;2022-10-16T12:43:51;2.67;;;1.70;;
7142;SDS011;3613;48.902;9.204;2022-10-16T12:48:43;1.63;;;1.53;;
7142;SDS011;3613;48.902;9.204;2022-10-16T12:51:10;2.13;;;1.87;;
7142;SDS011;3613;48.902;9.204;2022-10-16T12:53:39;2.47;;;1.50;;
7142;SDS011;3613;48.902;9.204;2022-10-16T13:04:34;1.57;;;1.43;;
7142;SDS011;3613;48.902;9.204;2022-10-16T13:07:16;4.70;;;1.73;;
7142;SDS011;3613;48.902;9.204;2022-10-16T13:12:49;3.20;;;1.80;;
7142;SDS011;3613;48.902;9.204;2022-10-16T13:18:13;4.17;;;1.87;;
7142;SDS011;3613;48.902;9.204;2022-10-16T13:26:59;3.63;;;2.00;;
7142;SDS011;3613;48.902;9.204;2022-10-16T13:29:52;3.03;;;1.67;;
7142;SDS011;3613;48.902;9.204;2022-10-16T13:32:23;3.00;;;2.00;;
7142;SDS011;3613;48.902;9.204;2022-10-16T13:34:49;4.53;;;2.13;;
7142;SDS011;3613;48.902;9.204;2022-10-16T13:37:17;2.47;;;1.60;;
7142;SDS011;3613;48.902;9.204;2022-10-16T13:39:47;2.57;;;1.50;;
7142;SDS011;3613;48.902;9.204;2022-10-16T13:42:26;2.17;;;1.70;;
7142;SDS011;3613;48.902;9.204;2022-10-16T13:44:55;2.83;;;1.73;;
7142;SDS011;3613;48.902;9.204;2022-10-16T13:47:25;2.57;;;1.77;;
7142;SDS011;3613;48.902;9.204;2022-10-16T13:50:01;2.73;;;1.60;;
7142;SDS011;3613;48.902;9.204;2022-10-16T13:52:28;2.73;;;1.60;;
7142;SDS011;3613;48.902;9.204;2022-10-16T13:54:56;1.63;;;1.53;;
7142;SDS011;3613;48.902;9.204;2022-10-16T13:57:22;4.17;;;1.80;;
7142;SDS011;3613;48.902;9.204;2022-10-16T13:59:49;4.70;;;2.40;;
7142;SDS011;3613;48.902;9.204;2022-10-16T14:04:51;2.77;;;1.80;;
7142;SDS011;3613;48.902;9.204;2022-10-16T14:07:28;3.23;;;1.70;;
7142;SDS011;3613;48.902;9.204;2022-10-16T14:09:57;2.53;;;1.90;;
7142;SDS011;3613;48.902;9.204;2022-10-16T14:12:26;2.10;;;1.90;;
7142;SDS011;3613;48.902;9.204;2022-10-16T14:14:52;2.27;;;2.07;;
7142;SDS011;3613;48.902;9.204;2022-10-16T14:19:57;4.53;;;2.10;;
7142;SDS011;3613;48.902;9.204;2022-10-16T14:25:24;2.20;;;1.67;;
7142;SDS011;3613;48.902;9.204;2022-10-16T14:30:56;3.50;;;2.17;;
7142;SDS011;3613;48.902;9.204;2022-10-16T14:36:01;2.67;;;2.00;;
7142;SDS011;3613;48.902;9.204;2022-10-16T14:38:59;3.70;;;1.90;;
7142;SDS011;3613;48.902;9.204;2022-10-16T14:41:28;4.80;;;2.27;;
7142;SDS011;3613;48.902;9.204;2022-10-16T14:43:56;3.47;;;2.03;;
7142;SDS011;3613;48.902;9.204;2022-10-16T14:46:37;2.80;;;2.00;;
7142;SDS011;3613;48.902;9.204;2022-10-16T14:51:39;3.60;;;2.20;;
7142;SDS011;3613;48.902;9.204;2022-10-16T14:54:14;2.57;;;2.10;;
7142;SDS011;3613;48.902;9.204;2022-10-16T14:59:19;2.90;;;2.20;;
7142;SDS011;3613;48.902;9.204;2022-10-16T15:01:52;3.27;;;2.20;;
7142;SDS011;3613;48.902;9.204;2022-10-16T15:04:20;4.10;;;2.70;;
7142;SDS011;3613;48.902;9.204;2022-10-16T15:06:45;5.10;;;3.50;;
7142;SDS011;3613;48.902;9.204;2022-10-16T15:09:13;5.00;;;4.10;;
7142;SDS011;3613;48.902;9.204;2022-10-16T15:11:39;3.80;;;2.63;;
7142;SDS011;3613;48.902;9.204;2022-10-16T15:14:08;3.77;;;2.77;;
7142;SDS011;3613;48.902;9.204;2022-10-16T15:16:36;5.07;;;3.10;;
7142;SDS011;3613;48.902;9.204;2022-10-16T15:19:01;4.60;;;2.90;;
7142;SDS011;3613;48.902;9.204;2022-10-16T15:21:30;3.47;;;2.70;;
7142;SDS011;3613;48.902;9.204;2022-10-16T15:23:57;4.03;;;2.97;;
7142;SDS011;3613;48.902;9.204;2022-10-16T15:26:24;7.00;;;3.77;;
7142;SDS011;3613;48.902;9.204;2022-10-16T15:28:50;7.90;;;7.07;;
7142;SDS011;3613;48.902;9.204;2022-10-16T15:31:16;8.70;;;5.80;;
7142;SDS011;3613;48.902;9.204;2022-10-16T15:33:42;5.87;;;3.40;;
7142;SDS011;3613;48.902;9.204;2022-10-16T15:36:07;4.40;;;4.00;;
7142;SDS011;3613;48.902;9.204;2022-10-16T15:38:33;3.63;;;3.23;;
7142;SDS011;3613;48.902;9.204;2022-10-16T15:40:59;4.03;;;2.93;;
7142;SDS011;3613;48.902;9.204;2022-10-16T15:43:25;3.77;;;2.27;;
7142;SDS011;3613;48.902;9.204;2022-10-16T15:46:04;2.30;;;1.73;;
7142;SDS011;3613;48.902;9.204;2022-10-16T15:48:31;4.00;;;2.20;;
7142;SDS011;3613;48.902;9.204;2022-10-16T15:50:57;3.97;;;2.80;;
7142;SDS011;3613;48.902;9.204;2022-10-16T15:53:26;4.73;;;2.80;;
7142;SDS011;3613;48.902;9.204;2022-10-16T15:55:52;5.60;;;3.17;;
7142;SDS011;3613;48.902;9.204;2022-10-16T15:58:18;3.67;;;2.40;;
7142;SDS011;3613;48.902;9.204;2022-10-16T16:00:43;4.03;;;2.00;;
7142;SDS011;3613;48.902;9.204;2022-10-16T16:03:09;13.13;;;5.50;;
7142;SDS011;3613;48.902;9.204;2022-10-16T16:05:38;5.77;;;2.70;;
7142;SDS011;3613;48.902;9.204;2022-10-16T16:08:04;3.70;;;2.50;;
7142;SDS011;3613;48.902;9.204;2022-10-16T16:10:30;2.73;;;2.00;;
7142;SDS011;3613;48.902;9.204;2022-10-16T16:12:55;5.70;;;2.17;;
7142;SDS011;3613;48.902;9.204;2022-10-16T16:15:24;3.33;;;2.10;;
7142;SDS011;3613;48.902;9.204;2022-10-16T16:17:49;3.90;;;2.00;;
7142;SDS011;3613;48.902;9.204;2022-10-16T16:20:15;4.27;;;2.40;;
7142;SDS011;3613;48.902;9.204;2022-10-16T16:22:43;4.17;;;2.53;;
7142;SDS011;3613;48.902;9.204;2022-10-16T16:25:09;4.50;;;2.27;;
7142;SDS011;3613;48.902;9.204;2022-10-16T16:27:35;3.53;;;2.30;;
7142;SDS011;3613;48.902;9.204;2022-10-16T16:30:03;4.03;;;1.90;;
7142;SDS011;3613;48.902;9.204;2022-10-16T16:32:34;7.30;;;2.77;;
7142;SDS011;3613;48.902;9.204;2022-10-16T16:35:03;3.43;;;2.10;;
7142;SDS011;3613;48.902;9.204;2022-10-16T16:37:29;3.37;;;1.90;;
7142;SDS011;3613;48.902;9.204;2022-10-16T16:39:56;2.87;;;2.00;;
7142;SDS011;3613;48.902;9.204;2022-10-16T16:42:26;5.43;;;2.07;;
7142;SDS011;3613;48.902;9.204;2022-10-16T16:44:52;5.33;;;2.57;;
7142;SDS011;3613;48.902;9.204;2022-10-16T16:47:18;3.93;;;2.20;;
7142;SDS011;3613;48.902;9.204;2022-10-16T16:49:44;7.03;;;2.60;;
7142;SDS011;3613;48.902;9.204;2022-10-16T16:52:11;3.10;;;2.43;;
7142;SDS011;3613;48.902;9.204;2022-10-16T16:54:37;3.63;;;2.50;;
7142;SDS011;3613;48.902;9.204;2022-10-16T16:57:06;6.90;;;2.73;;
7142;SDS011;3613;48.902;9.204;2022-10-16T16:59:31;4.07;;;3.00;;
7142;SDS011;3613;48.902;9.204;2022-10-16T17:01:58;5.00;;;3.57;;
7142;SDS011;3613;48.902;9.204;2022-10-16T17:04:28;3.57;;;3.23;;
7142;SDS011;3613;48.902;9.204;2022-10-16T17:06:54;4.43;;;3.20;;
7142;SDS011;3613;48.902;9.204;2022-10-16T17:09:20;7.60;;;3.73;;
7142;SDS011;3613;48.902;9.204;2022-10-16T17:11:47;4.90;;;3.50;;
7142;SDS011;3613;48.902;9.204;2022-10-16T17:14:13;5.83;;;3.80;;
7142;SDS011;3613;48.902;9.204;2022-10-16T17:16:43;5.80;;;3.80;;
7142;SDS011;3613;48.902;9.204;2022-10-16T17:19:13;7.30;;;3.60;;
7142;SDS011;3613;48.902;9.204;2022-10-16T17:21:42;4.40;;;3.83;;
7142;SDS011;3613;48.902;9.204;2022-10-16T17:24:08;5.60;;;4.43;;
7142;SDS011;3613;48.902;9.204;2022-10-16T17:26:35;7.43;;;4.13;;
7142;SDS011;3613;48.902;9.204;2022-10-16T17:29:12;9.17;;;5.53;;
7142;SDS011;3613;48.902;9.204;2022-10-16T17:31:42;9.47;;;5.27;;
7142;SDS011;3613;48.902;9.204;2022-10-16T17:34:08;13.47;;;5.20;;
7142;SDS011;3613;48.902;9.204;2022-10-16T17:36:36;12.27;;;5.07;;
7142;SDS011;3613;48.902;9.204;2022-10-16T17:39:03;5.57;;;4.70;;
7142;SDS011;3613;48.902;9.204;2022-10-16T17:41:31;5.23;;;4.33;;
7142;SDS011;3613;48.902;9.204;2022-10-16T17:43:58;5.13;;;3.90;;
7142;SDS011;3613;48.902;9.204;2022-10-16T17:46:24;6.83;;;3.70;;
7142;SDS011;3613;48.902;9.204;2022-10-16T17:48:51;5.40;;;4.07;;
7142;SDS011;3613;48.902;9.204;2022-10-16T17:51:22;8.27;;;3.80;;